Time;durP1;ratioP1;P1;durP2;ratioP2;P2;SDS_P1;SDS_P2;PMS_P1;PMS_P2;Temp;Humidity;BMP_temperature;BMP_pressure;BME280_temperature;BME280_humidity;BME280_pressure;Samples;Min_cycle;Max_cycle;Signal;HPM_P1;HPM_P2
2021/06/11 00:01:34;;;;;;;13.82;8.15;;;;;;;15.02;70.27;99831.13;5098275;28;20059;-53
2021/06/11 00:04:00;;;;;;;11.60;8.25;;;;;;;15.00;70.13;99837.38;5098874;28;20047;-53
2021/06/11 00:06:25;;;;;;;12.50;8.13;;;;;;;14.99;70.03;99833.03;5098563;28;20060;-53
2021/06/11 00:08:51;;;;;;;18.65;8.70;;;;;;;14.95;70.19;99833.16;5098567;28;20040;-53
2021/06/11 00:11:17;;;;;;;14.10;8.80;;;;;;;14.93;70.71;99828.88;5098686;28;20044;-53
2021/06/11 00:13:43;;;;;;;13.52;8.02;;;;;;;14.90;70.34;99823.72;5098999;28;20044;-53
2021/06/11 00:16:09;;;;;;;9.77;7.18;;;;;;;14.88;70.71;99820.28;5098665;28;20055;-53
2021/06/11 00:18:34;;;;;;;7.85;6.15;;;;;;;14.84;70.54;99823.97;5098623;28;20040;-53
2021/06/11 00:21:00;;;;;;;9.70;7.00;;;;;;;14.81;70.95;99814.41;5098601;28;20044;-53
2021/06/11 00:23:26;;;;;;;7.32;6.05;;;;;;;14.80;70.77;99817.97;5098344;28;20121;-53
2021/06/11 00:25:52;;;;;;;8.75;6.95;;;;;;;14.77;70.51;99815.47;5098135;28;20064;-53
2021/06/11 00:28:18;;;;;;;9.15;7.00;;;;;;;14.73;70.44;99812.13;5098185;28;20485;-53
2021/06/11 00:30:43;;;;;;;8.20;6.57;;;;;;;14.72;70.90;99818.31;5098322;28;20055;-53
2021/06/11 00:33:09;;;;;;;10.23;7.65;;;;;;;14.69;70.72;99821.09;5098341;28;20051;-53
2021/06/11 00:35:35;;;;;;;17.15;8.40;;;;;;;14.67;70.79;99820.28;5098371;28;20052;-53
2021/06/11 00:38:02;;;;;;;12.63;8.60;;;;;;;14.65;70.82;99819.47;5097907;28;20048;-53
2021/06/11 00:40:27;;;;;;;13.20;8.73;;;;;;;14.62;71.09;99811.69;5098226;28;20044;-53
2021/06/11 00:42:53;;;;;;;12.10;8.63;;;;;;;14.59;70.92;99817.13;5097310;28;20097;-53
2021/06/11 00:45:19;;;;;;;13.52;8.48;;;;;;;14.58;71.21;99812.75;5098510;28;20071;-53
2021/06/11 00:47:45;;;;;;;11.18;7.88;;;;;;;14.55;71.48;99810.22;5098095;28;20436;-53
2021/06/11 00:50:12;;;;;;;16.73;8.95;;;;;;;14.52;71.22;99805.09;5097588;28;20044;-53
2021/06/11 00:52:39;;;;;;;14.25;8.63;;;;;;;14.51;71.83;99808.66;5097641;28;20460;-53
2021/06/11 00:55:06;;;;;;;11.65;8.07;;;;;;;14.51;71.95;99813.06;5097911;28;20048;-53
2021/06/11 00:57:31;;;;;;;15.10;9.63;;;;;;;14.49;71.90;99816.59;5097886;28;20444;-53
2021/06/11 00:59:57;;;;;;;15.95;8.88;;;;;;;14.46;71.64;99811.47;5097828;28;20105;-53
2021/06/11 01:02:23;;;;;;;11.63;7.65;;;;;;;14.45;71.95;99816.78;5097795;28;20052;-53
2021/06/11 01:04:49;;;;;;;11.00;7.57;;;;;;;14.44;71.84;99812.44;5096551;28;20452;-53
2021/06/11 01:07:16;;;;;;;8.88;6.60;;;;;;;14.41;71.78;99810.78;5096494;28;20440;-53
2021/06/11 01:09:41;;;;;;;9.82;7.30;;;;;;;14.39;71.90;99807.34;5096385;28;20044;-53
2021/06/11 01:12:08;;;;;;;10.88;7.45;;;;;;;14.38;71.86;99807.41;5096991;28;20040;-53
2021/06/11 01:14:34;;;;;;;10.82;7.07;;;;;;;14.35;72.24;99805.75;5095638;28;20056;-53
2021/06/11 01:17:00;;;;;;;9.15;7.18;;;;;;;14.33;72.59;99806.72;5096298;28;20135;-53
2021/06/11 01:19:30;;;;;;;8.18;6.38;;;;;;;14.35;72.63;99804.91;5096276;28;20105;-53
2021/06/11 01:22:02;;;;;;;7.10;6.40;;;;;;;14.35;72.79;99803.13;5096546;28;20060;-53
2021/06/11 01:24:30;;;;;;;9.52;6.85;;;;;;;14.28;73.04;99785.84;5097379;28;20230;-53
2021/06/11 01:26:57;;;;;;;10.25;7.78;;;;;;;14.33;73.02;99793.56;5079327;28;20384;-53
2021/06/11 01:29:27;;;;;;;9.23;7.80;;;;;;;14.30;73.03;99783.13;5097181;28;20054;-53
2021/06/11 01:31:57;;;;;;;10.02;7.15;;;;;;;14.34;72.73;99797.94;5079656;28;20074;-53
2021/06/11 01:34:33;;;;;;;9.18;7.13;;;;;;;14.33;73.21;99794.44;5097151;28;20048;-53
2021/06/11 01:37:04;;;;;;;8.88;7.25;;;;;;;14.31;73.04;99795.41;5096560;28;20044;-53
2021/06/11 01:39:30;;;;;;;9.38;7.10;;;;;;;14.31;73.20;99792.78;5097172;28;20040;-53
2021/06/11 01:41:56;;;;;;;7.55;6.75;;;;;;;14.33;73.25;99789.16;5096178;28;20056;-53
2021/06/11 01:44:21;;;;;;;8.43;7.38;;;;;;;14.33;73.22;99786.53;5079271;28;20209;-53
2021/06/11 01:46:48;;;;;;;10.60;7.10;;;;;;;14.33;73.25;99778.63;5078981;28;20048;-53
2021/06/11 01:49:14;;;;;;;9.05;7.35;;;;;;;14.33;73.46;99783.91;5096057;28;20064;-53
2021/06/11 01:51:40;;;;;;;9.43;7.82;;;;;;;14.34;74.01;99785.59;5096011;28;20039;-53
2021/06/11 01:54:07;;;;;;;10.15;7.97;;;;;;;14.35;74.03;99776.78;5096222;28;20417;-53
2021/06/11 01:56:33;;;;;;;9.00;7.78;;;;;;;14.36;73.90;99774.97;5095704;28;20391;-53
2021/06/11 01:58:58;;;;;;;9.80;7.03;;;;;;;14.35;73.84;99776.78;5096032;28;20048;-53
2021/06/11 02:01:24;;;;;;;9.15;6.82;;;;;;;14.36;73.99;99778.47;5096733;28;20040;-53
2021/06/11 02:03:51;;;;;;;7.97;7.18;;;;;;;14.37;73.81;99768.81;5078979;28;20078;-53
2021/06/11 02:06:18;;;;;;;9.07;6.68;;;;;;;14.36;74.05;99773.19;5095812;28;20048;-52
2021/06/11 02:08:44;;;;;;;11.57;6.32;;;;;;;14.36;74.15;99791.66;5095516;28;20040;-52
2021/06/11 02:11:10;;;;;;;8.00;6.95;;;;;;;14.36;74.44;99775.84;5078655;28;20040;-51
2021/06/11 02:13:39;;;;;;;6.88;6.18;;;;;;;14.37;74.74;99780.22;5095352;28;20052;-51
2021/06/11 02:16:05;;;;;;;9.18;7.07;;;;;;;14.34;74.76;99782.97;5095646;28;20048;-51
2021/06/11 02:18:32;;;;;;;7.15;6.30;;;;;;;14.35;74.21;99783.81;5096276;28;20113;-51
2021/06/11 02:20:58;;;;;;;7.20;6.45;;;;;;;14.31;74.39;99780.47;5078912;28;20127;-51
2021/06/11 02:23:24;;;;;;;10.82;6.78;;;;;;;14.25;74.62;99776.28;5078814;28;20048;-51
2021/06/11 02:25:50;;;;;;;9.32;6.90;;;;;;;14.26;74.40;99780.63;5094903;28;20051;-51
2021/06/11 02:28:16;;;;;;;12.40;7.75;;;;;;;14.25;74.46;99786.81;5095543;28;20497;-51
2021/06/11 02:30:43;;;;;;;12.18;6.97;;;;;;;14.25;74.48;99781.56;5095972;28;20333;-51
2021/06/11 02:33:12;;;;;;;10.35;7.90;;;;;;;14.27;74.25;99781.50;5096325;28;20113;-51
2021/06/11 02:35:38;;;;;;;10.32;6.80;;;;;;;14.25;74.62;99781.56;5095474;28;20044;-51
2021/06/11 02:38:04;;;;;;;9.48;7.50;;;;;;;14.23;74.47;99782.53;5095956;28;20113;-51
2021/06/11 02:40:30;;;;;;;11.98;7.45;;;;;;;14.24;74.34;99779.84;5095956;28;20055;-51
2021/06/11 02:42:59;;;;;;;9.60;7.05;;;;;;;14.26;74.56;99785.91;5096847;28;20078;-51
2021/06/11 02:45:28;;;;;;;9.80;8.25;;;;;;;14.22;74.67;99778.19;5078610;28;20036;-51
2021/06/11 02:48:15;;;;;;;10.68;7.78;;;;;;;14.28;74.93;99793.75;5095191;28;20107;-52
2021/06/11 02:50:55;;;;;;;10.02;7.43;;;;;;;14.24;75.32;99793.03;5095384;28;20348;-52
2021/06/11 02:53:26;;;;;;;9.90;8.38;;;;;;;14.24;75.30;99786.91;5095409;28;20124;-52
2021/06/11 02:55:58;;;;;;;11.80;8.30;;;;;;;14.28;74.96;99785.84;5095329;28;20048;-51
2021/06/11 02:58:26;;;;;;;10.40;8.73;;;;;;;14.25;75.24;99792.09;5078455;28;20040;-52
2021/06/11 03:00:51;;;;;;;9.20;8.20;;;;;;;14.27;75.33;99786.78;5078325;28;20436;-51
2021/06/11 03:03:25;;;;;;;9.10;7.85;;;;;;;14.32;75.16;99790.06;5095183;28;20044;-52
2021/06/11 03:05:52;;;;;;;11.05;8.45;;;;;;;14.26;75.62;99785.03;5095175;28;20501;-52
2021/06/11 03:08:19;;;;;;;8.80;7.90;;;;;;;14.34;75.53;99790.88;5077605;28;20131;-52
2021/06/11 03:10:49;;;;;;;9.90;8.13;;;;;;;14.40;75.47;99788.00;5094886;28;20044;-52
2021/06/11 03:13:15;;;;;;;8.85;7.22;;;;;;;14.42;75.44;99780.84;5078507;28;20040;-51
2021/06/11 03:15:41;;;;;;;11.98;8.23;;;;;;;14.46;75.50;99786.84;5095055;28;20052;-52
2021/06/11 03:18:09;;;;;;;11.85;9.10;;;;;;;14.52;75.67;99789.28;5078305;28;20430;-52
2021/06/11 03:20:37;;;;;;;11.82;9.27;;;;;;;14.55;75.82;99789.16;5094698;28;20508;-51
2021/06/11 03:23:11;;;;;;;14.55;9.73;;;;;;;14.59;75.88;99790.75;5078034;28;20044;-51
2021/06/11 03:25:50;;;;;;;11.77;8.25;;;;;;;14.64;76.04;99795.81;5095377;28;20056;-52
2021/06/11 03:28:18;;;;;;;12.38;8.90;;;;;;;14.66;76.11;99800.13;5078438;28;20040;-52
2021/06/11 03:30:49;;;;;;;14.57;9.48;;;;;;;14.71;75.97;99794.63;5094613;28;20036;-51
2021/06/11 03:33:19;;;;;;;10.95;8.65;;;;;;;14.74;76.08;99797.16;5095545;28;20048;-51
2021/06/11 03:35:50;;;;;;;10.93;8.43;;;;;;;14.79;76.03;99796.97;5094651;28;20117;-51
2021/06/11 03:38:22;;;;;;;10.65;8.18;;;;;;;14.85;76.09;99786.13;5097714;28;20044;-51
2021/06/11 03:40:49;;;;;;;9.82;8.65;;;;;;;14.87;76.05;99779.88;5099080;28;20364;-52
2021/06/11 03:43:14;;;;;;;12.35;8.45;;;;;;;14.96;75.97;99787.41;5098750;28;20035;-51
2021/06/11 03:45:41;;;;;;;12.85;8.30;;;;;;;15.00;75.96;99785.47;5098432;28;20083;-51
2021/06/11 03:48:07;;;;;;;9.25;8.07;;;;;;;15.07;75.88;99789.56;5065068;28;20048;-51
2021/06/11 03:50:33;;;;;;;8.93;8.00;;;;;;;15.12;75.79;99787.59;5098736;28;20044;-51
2021/06/11 03:52:59;;;;;;;9.50;7.70;;;;;;;15.20;75.93;99787.25;5098840;28;20084;-51
2021/06/11 03:55:29;;;;;;;10.55;8.43;;;;;;;15.27;76.06;99785.19;5098205;28;20044;-51
2021/06/11 03:57:59;;;;;;;9.55;8.07;;;;;;;15.35;75.86;99783.06;5099058;28;20048;-51
2021/06/11 04:00:25;;;;;;;12.95;10.20;;;;;;;15.39;76.49;99784.63;5098134;28;20044;-51
2021/06/11 04:02:51;;;;;;;12.85;9.25;;;;;;;15.42;76.28;99780.06;5097999;28;20048;-51
2021/06/11 04:05:17;;;;;;;10.77;9.10;;;;;;;15.55;76.68;99784.81;5098051;28;20059;-52
2021/06/11 04:07:52;;;;;;;10.48;9.38;;;;;;;15.66;76.45;99785.16;5081179;28;20329;-51
2021/06/11 04:10:22;;;;;;;12.48;10.32;;;;;;;15.73;76.23;99783.13;5097872;28;20052;-52
2021/06/11 04:12:51;;;;;;;11.27;9.00;;;;;;;15.85;76.30;99787.84;5099085;28;20359;-52
2021/06/11 04:15:17;;;;;;;10.75;9.63;;;;;;;15.93;76.58;99787.50;5097800;28;20131;-52
2021/06/11 04:17:59;;;;;;;12.93;10.13;;;;;;;16.03;76.10;99788.75;5098503;28;20040;-52
2021/06/11 04:20:25;;;;;;;11.25;9.43;;;;;;;16.08;76.12;99794.66;5097497;28;20455;-52
2021/06/11 04:22:52;;;;;;;12.10;9.65;;;;;;;16.19;76.21;99788.88;5097752;28;20109;-52
2021/06/11 04:25:18;;;;;;;11.18;10.07;;;;;;;16.28;76.18;99791.94;5097400;28;20056;-51
2021/06/11 04:27:43;;;;;;;11.10;9.43;;;;;;;16.41;76.12;99786.03;5097632;28;20051;-52
2021/06/11 04:30:10;;;;;;;12.82;9.18;;;;;;;16.53;76.21;99791.56;5097280;28;20043;-52
2021/06/11 04:32:35;;;;;;;11.57;9.15;;;;;;;16.70;76.04;99787.22;5098160;28;20043;-52
2021/06/11 04:35:01;;;;;;;13.93;10.13;;;;;;;16.80;76.13;99792.00;5097163;28;20056;-52
2021/06/11 04:37:27;;;;;;;11.60;10.35;;;;;;;16.88;76.15;99780.19;5098630;28;20048;-52
2021/06/11 04:39:53;;;;;;;11.13;10.02;;;;;;;17.03;75.84;99784.69;5080260;28;20321;-51
2021/06/11 04:42:19;;;;;;;11.80;9.70;;;;;;;17.15;75.85;99791.97;5097976;28;20043;-52
2021/06/11 04:44:46;;;;;;;10.38;9.27;;;;;;;17.26;75.73;99781.69;5096957;28;20052;-52
2021/06/11 04:47:11;;;;;;;12.45;9.30;;;;;;;17.38;75.60;99790.75;5096883;28;20355;-51
2021/06/11 04:49:37;;;;;;;11.82;10.20;;;;;;;17.47;75.55;99782.31;5098195;28;20046;-51
2021/06/11 04:52:04;;;;;;;11.82;10.40;;;;;;;17.58;75.28;99784.41;5098013;28;20044;-51
2021/06/11 04:54:29;;;;;;;13.40;9.60;;;;;;;17.65;75.03;99790.22;5098007;28;20044;-51
2021/06/11 04:56:55;;;;;;;14.38;10.40;;;;;;;17.67;75.02;99780.38;5097909;28;20109;-51
2021/06/11 04:59:21;;;;;;;13.02;10.18;;;;;;;17.77;74.75;99786.06;5096768;28;20318;-51
2021/06/11 05:01:47;;;;;;;11.60;9.65;;;;;;;17.82;75.25;99797.28;5097567;28;20058;-51
2021/06/11 05:04:13;;;;;;;18.55;11.13;;;;;;;17.89;75.00;99780.09;5097776;28;20063;-51
2021/06/11 05:06:39;;;;;;;12.48;10.15;;;;;;;17.99;74.99;99794.53;5097732;28;20058;-51
2021/06/11 05:09:05;;;;;;;12.38;10.93;;;;;;;18.12;75.10;99781.44;5097413;28;20064;-51
2021/06/11 05:11:31;;;;;;;15.13;11.02;;;;;;;18.24;74.79;99778.09;5097348;28;20040;-51
2021/06/11 05:13:57;;;;;;;20.17;14.05;;;;;;;18.36;74.74;99776.53;5097902;28;20040;-51
2021/06/11 05:16:23;;;;;;;15.05;12.10;;;;;;;18.50;74.59;99773.94;5097361;28;20036;-51
2021/06/11 05:18:48;;;;;;;13.70;12.07;;;;;;;18.83;74.86;99765.81;5097190;28;20052;-51
2021/06/11 05:21:14;;;;;;;12.77;10.93;;;;;;;19.35;74.57;99770.63;5096336;28;20055;-51
2021/06/11 05:23:40;;;;;;;12.80;10.52;;;;;;;19.79;73.71;99764.34;5097750;28;20105;-51
2021/06/11 05:26:06;;;;;;;12.50;10.52;;;;;;;19.96;72.28;99770.41;5097024;28;20432;-51
2021/06/11 05:28:32;;;;;;;12.75;10.93;;;;;;;20.02;71.42;99775.31;5063050;28;20063;-51
2021/06/11 05:30:58;;;;;;;13.23;11.65;;;;;;;20.07;71.06;99770.53;5097222;28;20072;-51
2021/06/11 05:33:23;;;;;;;11.65;10.02;;;;;;;20.11;70.81;99773.84;5097216;28;20421;-51
2021/06/11 05:35:49;;;;;;;10.38;9.05;;;;;;;20.22;70.74;99769.56;5097243;28;20071;-51
2021/06/11 05:38:15;;;;;;;12.63;10.77;;;;;;;20.38;70.48;99779.19;5096976;28;20036;-51
2021/06/11 05:40:41;;;;;;;13.93;12.13;;;;;;;20.54;70.16;99770.13;5079156;28;20051;-51
2021/06/11 05:43:07;;;;;;;11.50;10.30;;;;;;;20.69;69.48;99772.69;5096803;28;20040;-51
2021/06/11 05:45:33;;;;;;;13.52;11.32;;;;;;;20.82;69.05;99772.72;5097014;28;20044;-51
2021/06/11 05:47:59;;;;;;;13.65;12.25;;;;;;;21.13;68.71;99780.31;5113042;28;20409;-51
2021/06/11 05:50:26;;;;;;;11.20;10.07;;;;;;;21.60;68.62;99768.13;5096872;28;20044;-52
2021/06/11 05:52:51;;;;;;;11.05;9.98;;;;;;;22.01;66.77;99766.13;5096635;28;20437;-52
2021/06/11 05:55:17;;;;;;;10.85;9.45;;;;;;;22.44;66.76;99769.16;5096866;28;20055;-52
2021/06/11 05:57:43;;;;;;;10.93;8.77;;;;;;;22.62;65.38;99762.44;5096561;28;20093;-52
2021/06/11 06:00:09;;;;;;;11.95;9.07;;;;;;;22.85;65.01;99759.84;5096241;28;20105;-52
2021/06/11 06:02:35;;;;;;;10.25;7.82;;;;;;;23.17;64.64;99764.53;5095893;28;20056;-52
2021/06/11 06:05:01;;;;;;;10.23;8.40;;;;;;;23.30;63.67;99762.59;5096736;28;20482;-52
2021/06/11 06:07:27;;;;;;;10.75;9.40;;;;;;;23.28;62.27;99762.72;5096274;28;20052;-52
2021/06/11 06:09:54;;;;;;;11.07;9.38;;;;;;;23.24;61.66;99769.28;5096288;28;20044;-52
2021/06/11 06:12:21;;;;;;;10.18;8.50;;;;;;;23.21;62.09;99760.66;5096345;28;20109;-52
2021/06/11 06:14:46;;;;;;;10.10;9.13;;;;;;;23.22;62.07;99760.53;5096632;28;20060;-52
2021/06/11 06:17:12;;;;;;;11.63;8.60;;;;;;;23.32;62.18;99763.31;5096585;28;20126;-52
2021/06/11 06:19:38;;;;;;;9.75;8.65;;;;;;;23.41;61.38;99770.63;5096527;28;20116;-52
2021/06/11 06:22:04;;;;;;;8.93;8.02;;;;;;;23.53;61.21;99767.00;5096194;28;20079;-52
2021/06/11 06:24:30;;;;;;;8.63;7.72;;;;;;;23.64;60.99;99763.44;5096485;28;20036;-52
2021/06/11 06:26:56;;;;;;;8.95;7.10;;;;;;;23.72;60.65;99771.75;5096038;28;20056;-52
2021/06/11 06:29:21;;;;;;;10.60;8.15;;;;;;;23.72;60.64;99768.19;5096121;28;20048;-52
2021/06/11 06:31:47;;;;;;;8.93;7.55;;;;;;;23.72;60.59;99777.09;5096072;28;20048;-52
2021/06/11 06:34:13;;;;;;;10.73;7.68;;;;;;;23.69;60.66;99769.31;5096355;28;20048;-52
2021/06/11 06:36:39;;;;;;;10.00;7.70;;;;;;;23.67;60.48;99773.06;5096358;28;20056;-52
2021/06/11 06:39:07;;;;;;;10.05;8.40;;;;;;;23.64;60.48;99771.47;5096346;28;20482;-52
2021/06/11 06:41:34;;;;;;;10.18;8.32;;;;;;;23.59;60.96;99773.66;5096314;28;20040;-52
2021/06/11 06:44:00;;;;;;;9.15;8.25;;;;;;;23.58;60.25;99763.94;5096274;28;20147;-52
2021/06/11 06:46:26;;;;;;;11.48;7.40;;;;;;;23.55;60.44;99780.22;5096272;28;20482;-52
2021/06/11 06:48:52;;;;;;;11.77;9.15;;;;;;;23.49;60.66;99759.31;5095912;28;20048;-52
2021/06/11 06:51:20;;;;;;;8.25;7.45;;;;;;;23.53;60.79;99767.00;5095230;28;20048;-52
2021/06/11 06:53:46;;;;;;;10.63;9.52;;;;;;;23.52;60.82;99778.63;5096185;28;20048;-52
2021/06/11 06:56:12;;;;;;;11.48;8.90;;;;;;;23.53;60.03;99769.66;5096108;28;20055;-52
2021/06/11 06:58:38;;;;;;;7.82;7.07;;;;;;;23.51;60.85;99770.75;5096117;28;20056;-52
2021/06/11 07:01:06;;;;;;;11.55;7.68;;;;;;;23.57;60.73;99767.59;5096100;28;20044;-52
2021/06/11 07:03:32;;;;;;;8.73;7.82;;;;;;;23.59;60.97;99773.66;5078101;28;20406;-52
2021/06/11 07:05:58;;;;;;;9.57;8.57;;;;;;;23.65;60.52;99767.81;5096355;28;20112;-52
2021/06/11 07:08:26;;;;;;;12.35;10.13;;;;;;;23.78;60.56;99771.22;5096010;28;20048;-52
2021/06/11 07:10:53;;;;;;;12.60;9.20;;;;;;;23.91;60.52;99771.09;5094817;28;20036;-52
2021/06/11 07:13:19;;;;;;;14.07;10.00;;;;;;;24.24;60.78;99772.84;5099092;28;20070;-52
2021/06/11 07:15:45;;;;;;;8.27;7.47;;;;;;;24.83;60.40;99765.28;5099947;28;20052;-52
2021/06/11 07:18:11;;;;;;;9.95;8.80;;;;;;;25.52;58.47;99762.91;5099628;28;20459;-52
2021/06/11 07:20:36;;;;;;;11.48;9.35;;;;;;;26.32;57.42;99767.38;5099582;28;20106;-52
2021/06/11 07:23:02;;;;;;;9.27;7.55;;;;;;;26.86;54.75;99732.84;5100567;28;20048;-52
2021/06/11 07:25:28;;;;;;;12.15;9.02;;;;;;;27.55;51.00;99766.63;5081776;28;20108;-52
2021/06/11 07:27:54;;;;;;;27.77;8.68;;;;;;;28.11;49.66;99762.09;5099646;28;20048;-52
2021/06/11 07:30:20;;;;;;;53.75;16.10;;;;;;;28.61;48.22;99761.59;5099274;28;20051;-53
2021/06/11 07:32:46;;;;;;;67.88;17.55;;;;;;;29.02;47.80;99760.09;5099248;28;20429;-53
2021/06/11 07:35:12;;;;;;;7.88;5.30;;;;;;;29.36;45.02;99761.97;5099502;28;20073;-53
2021/06/11 07:37:38;;;;;;;6.18;3.58;;;;;;;29.55;43.62;99760.91;5099227;28;20044;-53
2021/06/11 07:40:08;;;;;;;3.88;3.30;;;;;;;29.99;43.48;99758.03;5099221;28;20040;-53
2021/06/11 07:42:34;;;;;;;7.72;3.10;;;;;;;30.27;41.95;99753.25;5099139;28;20052;-53
2021/06/11 07:45:00;;;;;;;2.90;2.50;;;;;;;30.48;41.35;99747.34;5098197;28;20052;-53
2021/06/11 07:47:26;;;;;;;4.00;3.60;;;;;;;30.66;39.53;99749.91;5099073;28;20051;-53
2021/06/11 07:49:51;;;;;;;3.70;3.30;;;;;;;30.82;38.51;99744.50;5097995;28;20043;-53
2021/06/11 07:52:17;;;;;;;4.45;2.67;;;;;;;30.99;38.31;99748.03;5099175;28;20048;-53
2021/06/11 07:54:43;;;;;;;8.10;3.10;;;;;;;31.02;36.10;99754.97;5097968;28;20044;-53
2021/06/11 07:57:10;;;;;;;3.33;2.72;;;;;;;30.93;37.32;99756.81;5098520;28;20055;-53
2021/06/11 07:59:35;;;;;;;2.85;2.65;;;;;;;30.88;36.80;99757.34;5098619;28;20073;-53
2021/06/11 08:02:01;;;;;;;6.53;3.22;;;;;;;31.04;36.33;99752.91;5098693;28;20044;-53
2021/06/11 08:04:27;;;;;;;3.28;2.78;;;;;;;31.17;36.13;99753.25;5098911;28;20052;-53
2021/06/11 08:06:53;;;;;;;4.20;2.00;;;;;;;31.20;35.95;99744.78;5099174;28;20344;-53
2021/06/11 08:09:19;;;;;;;5.13;2.88;;;;;;;31.20;35.44;99755.59;5097227;28;20175;-53
2021/06/11 08:11:44;;;;;;;3.28;2.30;;;;;;;31.10;36.01;99747.69;5096534;28;20051;-53
2021/06/11 08:14:10;;;;;;;6.10;3.33;;;;;;;31.02;35.51;99755.81;5096647;28;20428;-53
2021/06/11 08:16:36;;;;;;;3.47;3.17;;;;;;;30.82;35.78;99757.19;5095903;28;20052;-53
2021/06/11 08:19:02;;;;;;;4.28;2.88;;;;;;;30.65;35.86;99759.03;5096744;28;20048;-53
2021/06/11 08:21:28;;;;;;;7.00;2.55;;;;;;;30.59;35.53;99754.28;5096464;28;20447;-53
2021/06/11 08:23:54;;;;;;;14.68;5.50;;;;;;;30.65;35.58;99751.75;5095888;28;20325;-53
2021/06/11 08:26:20;;;;;;;6.60;2.65;;;;;;;30.88;35.47;99746.53;5097765;28;20189;-53
2021/06/11 08:28:45;;;;;;;4.22;2.55;;;;;;;31.06;34.59;99751.72;5098518;28;20055;-53
2021/06/11 08:31:11;;;;;;;3.38;2.45;;;;;;;30.95;34.71;99744.81;5098392;28;20044;-53
2021/06/11 08:33:37;;;;;;;6.22;2.70;;;;;;;30.76;34.97;99747.03;5097608;28;20334;-53
2021/06/11 08:36:03;;;;;;;4.10;3.72;;;;;;;30.52;35.01;99748.72;5098346;28;20458;-53
2021/06/11 08:38:29;;;;;;;3.55;2.72;;;;;;;30.34;36.03;99745.31;5098280;28;20052;-53
2021/06/11 08:40:55;;;;;;;2.88;2.63;;;;;;;30.20;36.06;99738.72;5097405;28;20075;-53
2021/06/11 08:43:21;;;;;;;4.82;3.55;;;;;;;30.01;35.95;99745.22;5098202;28;20055;-53
2021/06/11 08:45:48;;;;;;;3.78;3.40;;;;;;;29.97;36.42;99749.28;5097068;28;20101;-53
2021/06/11 08:48:14;;;;;;;3.88;3.28;;;;;;;29.87;36.34;99749.41;5097038;28;20072;-53
2021/06/11 08:50:41;;;;;;;5.90;3.20;;;;;;;29.79;36.78;99750.22;5097222;28;20071;-53
2021/06/11 08:53:07;;;;;;;5.90;3.40;;;;;;;29.65;36.58;99755.41;5098359;28;20095;-53
2021/06/11 08:55:33;;;;;;;135.32;80.63;;;;;;;29.53;35.98;99746.72;5097889;28;20048;-53
2021/06/11 08:57:58;;;;;;;22.83;14.38;;;;;;;29.46;36.21;99757.31;5097866;28;20440;-53
2021/06/11 09:00:25;;;;;;;8.38;5.55;;;;;;;29.35;36.97;99750.34;5098078;28;20040;-53
2021/06/11 09:03:11;;;;;;;3.60;3.22;;;;;;;29.25;35.19;99755.03;5097788;28;20079;-52
2021/06/11 09:05:38;;;;;;;4.40;2.58;;;;;;;29.01;36.42;99747.59;5098109;28;20056;-53
2021/06/11 09:08:30;;;;;;;6.55;2.88;;;;;;;28.80;34.44;99752.50;5097314;28;20068;-52
2021/06/11 09:11:11;;;;;;;;;;;;;;;28.46;35.07;99765.84;5096976;28;20040;-52
2021/06/11 09:13:40;;;;;;;2.58;2.00;;;;;;;28.44;35.36;99768.69;5097589;28;20019;-52
2021/06/11 09:16:19;;;;;;;2.25;1.92;;;;;;;28.55;35.41;99763.06;5097278;28;20040;-52
2021/06/11 09:18:50;;;;;;;3.40;1.98;;;;;;;28.70;35.36;99759.81;5096665;28;20408;-52
2021/06/11 09:21:32;;;;;;;3.73;2.60;;;;;;;29.04;35.49;99754.53;5097453;28;20047;-52
2021/06/11 09:24:20;;;;;;;2.33;2.13;;;;;;;29.37;34.92;99754.72;5097046;28;20044;-52
2021/06/11 09:27:08;;;;;;;3.63;2.50;;;;;;;29.50;34.59;99761.38;5096956;28;20082;-53
2021/06/11 09:29:55;;;;;;;3.75;2.10;;;;;;;29.52;33.42;99759.38;5097060;28;20043;-53
2021/06/11 09:32:26;;;;;;;3.88;1.92;;;;;;;29.52;33.23;99761.22;5096135;28;20040;-53
2021/06/11 09:35:10;;;;;;;3.83;2.15;;;;;;;29.43;32.92;99770.28;5050799;28;20423;-53
2021/06/11 09:37:38;;;;;;;3.83;1.85;;;;;;;29.31;32.80;99758.91;5096206;28;20067;-53
2021/06/11 09:40:05;;;;;;;2.65;1.95;;;;;;;29.28;32.65;99759.22;5097055;28;20043;-53
2021/06/11 09:42:33;;;;;;;2.95;1.83;;;;;;;29.21;30.98;99761.72;5097067;28;20044;-53
2021/06/11 09:45:01;;;;;;;2.80;1.13;;;;;;;29.10;31.07;99768.22;5096702;28;20060;-52
2021/06/11 09:47:36;;;;;;;1.85;1.55;;;;;;;28.93;33.64;99766.41;5096651;28;20444;-52
2021/06/11 09:50:04;;;;;;;1.88;1.45;;;;;;;28.71;34.27;99766.91;5096592;28;20052;-52
2021/06/11 09:52:34;;;;;;;1.75;1.40;;;;;;;28.63;34.09;99768.53;5096596;28;20063;-52
2021/06/11 09:55:04;;;;;;;3.05;1.17;;;;;;;28.51;34.17;99774.31;5096871;28;20044;-52
2021/06/11 09:57:33;;;;;;;3.97;1.70;;;;;;;28.46;33.57;99772.06;5096210;28;20376;-52
2021/06/11 10:00:04;;;;;;;7.35;1.85;;;;;;;28.28;33.65;99766.66;5096743;28;20357;-52
2021/06/11 10:02:35;;;;;;;4.93;2.83;;;;;;;28.11;34.30;99765.66;5096188;28;20048;-52
2021/06/11 10:05:01;;;;;;;2.55;2.35;;;;;;;28.03;35.46;99772.78;5096534;28;20063;-52
2021/06/11 10:07:26;;;;;;;3.42;2.17;;;;;;;27.94;35.61;99755.69;5095762;28;20048;-52
2021/06/11 10:09:52;;;;;;;4.18;1.98;;;;;;;27.97;35.44;99758.06;5078600;28;20040;-52
2021/06/11 10:12:18;;;;;;;2.53;2.00;;;;;;;27.96;35.55;99759.94;5095589;28;20210;-52
2021/06/11 10:14:44;;;;;;;2.67;2.20;;;;;;;28.00;35.83;99773.06;5095695;28;20052;-52
2021/06/11 10:17:09;;;;;;;2.97;2.13;;;;;;;27.85;35.38;99754.78;5095664;28;20071;-52
2021/06/11 10:19:37;;;;;;;3.45;2.10;;;;;;;27.76;35.77;99760.16;5095346;28;20036;-52
2021/06/11 10:22:04;;;;;;;3.45;2.25;;;;;;;27.74;35.91;99752.22;5095586;28;20048;-52
2021/06/11 10:24:29;;;;;;;3.78;2.35;;;;;;;27.89;36.47;99749.94;5078858;28;20128;-52
2021/06/11 10:26:55;;;;;;;2.22;2.03;;;;;;;28.22;36.69;99750.28;5095052;28;20445;-52
2021/06/11 10:29:21;;;;;;;4.95;2.25;;;;;;;28.47;36.77;99737.88;5096353;28;20052;-52
2021/06/11 10:31:47;;;;;;;3.97;2.40;;;;;;;28.64;35.91;99712.81;5078497;28;20036;-47
2021/06/11 10:34:13;;;;;;;6.57;2.22;;;;;;;28.98;34.91;99736.28;5095475;28;20054;-47
2021/06/11 10:36:43;;;;;;;2.53;1.55;;;;;;;29.31;34.95;99749.00;5078589;28;20059;-47
2021/06/11 10:39:09;;;;;;;3.10;1.63;;;;;;;29.63;34.12;99742.06;5096798;28;20502;-47
2021/06/11 10:41:52;;;;;;;2.60;1.63;;;;;;;29.88;33.71;99731.38;5096302;28;20048;-47
2021/06/11 10:44:40;;;;;;;2.47;1.67;;;;;;;29.93;32.19;99729.00;5095939;28;20190;-47
2021/06/11 10:47:14;;;;;;;3.30;1.95;;;;;;;29.97;31.60;99730.38;5099140;28;20047;-47
2021/06/11 10:49:59;;;;;;;4.03;1.50;;;;;;;30.13;32.20;99729.56;5100053;28;20052;-47
2021/06/11 10:52:46;;;;;;;3.50;1.70;;;;;;;30.20;32.86;99734.16;5100084;28;20127;-47
2021/06/11 10:55:18;;;;;;;5.68;2.13;;;;;;;30.32;32.40;99729.25;5100090;28;20047;-47
2021/06/11 10:57:53;;;;;;;6.20;2.00;;;;;;;30.36;33.10;99724.41;5100023;28;20056;-47
2021/06/11 11:00:19;;;;;;;3.40;1.95;;;;;;;30.39;32.82;99716.78;5099315;28;20055;-47
2021/06/11 11:02:46;;;;;;;4.90;1.75;;;;;;;30.55;33.16;99720.50;5099890;28;20040;-47
2021/06/11 11:05:27;;;;;;;3.83;1.33;;;;;;;30.78;32.12;99717.97;5100086;28;20096;-47
2021/06/11 11:07:53;;;;;;;4.30;1.90;;;;;;;30.76;31.37;99720.84;5098886;28;20056;-47
2021/06/11 11:10:44;;;;;;;3.88;1.83;;;;;;;30.78;31.00;99712.56;5099906;28;20120;-47
2021/06/11 11:13:11;;;;;;;1.20;1.00;;;;;;;30.84;31.18;99703.78;5100309;28;20401;-47
2021/06/11 11:15:44;;;;;;;1.80;0.90;;;;;;;31.14;31.44;99708.47;5099601;28;20372;-47
2021/06/11 11:18:15;;;;;;;4.13;1.00;;;;;;;31.45;30.30;99709.56;5099549;28;20459;-47
2021/06/11 11:20:42;;;;;;;1.47;1.00;;;;;;;31.60;29.39;99710.50;5099584;28;20055;-47
2021/06/11 11:23:11;;;;;;;1.33;0.93;;;;;;;31.48;29.80;99712.75;5099732;28;20066;-47
2021/06/11 11:25:37;;;;;;;3.17;1.10;;;;;;;31.39;29.44;99711.97;5099299;28;20063;-47
2021/06/11 11:28:04;;;;;;;1.52;1.08;;;;;;;31.31;29.84;99708.41;5099328;28;20084;-47
2021/06/11 11:30:29;;;;;;;1.38;0.88;;;;;;;31.27;28.58;99697.09;5099823;28;20486;-47
2021/06/11 11:32:56;;;;;;;1.75;0.80;;;;;;;31.07;29.30;99693.06;5099855;28;20067;-47